createdAt,value
2023-05-20T10:51:32.100Z,16.09
2023-05-20T10:53:58.974Z,16.50
2023-05-20T10:56:27.039Z,16.88
2023-05-20T10:58:55.154Z,16.98
2023-05-20T11:01:26.893Z,17.06
2023-05-20T11:03:56.365Z,16.99
2023-05-20T11:06:28.449Z,17.30
2023-05-20T11:08:56.316Z,17.36
2023-05-20T11:11:23.772Z,17.48
2023-05-20T11:13:51.564Z,17.65
2023-05-20T11:16:18.378Z,17.95
2023-05-20T11:18:45.318Z,18.09
2023-05-20T11:21:12.148Z,18.19
2023-05-20T11:23:40.705Z,18.45
2023-05-20T11:26:08.183Z,18.87
2023-05-20T11:28:36.307Z,19.07
2023-05-20T11:31:03.768Z,19.25
2023-05-20T11:33:31.003Z,19.07
2023-05-20T11:35:58.130Z,18.88
2023-05-20T11:38:25.076Z,18.72
2023-05-20T11:40:56.854Z,18.65
2023-05-20T11:43:24.448Z,18.68
2023-05-20T11:46:00.076Z,18.90
2023-05-20T11:48:27.333Z,19.23
2023-05-20T11:50:55.846Z,19.73
2023-05-20T11:53:24.051Z,19.62
2023-05-20T11:55:55.272Z,19.59
2023-05-20T11:58:24.447Z,19.44
2023-05-20T12:00:59.034Z,19.23
2023-05-20T12:03:33.223Z,19.44
2023-05-20T12:06:03.951Z,19.41
2023-05-20T12:08:30.733Z,19.40
2023-05-20T12:10:57.489Z,19.63
2023-05-20T12:13:24.386Z,19.78
2023-05-20T12:15:51.294Z,19.86
2023-05-20T12:18:18.440Z,20.09
2023-05-20T12:20:45.586Z,20.26
2023-05-20T12:23:12.450Z,20.44
2023-05-20T12:25:39.265Z,20.37
2023-05-20T12:28:07.102Z,20.52
2023-05-20T12:30:34.372Z,20.53
2023-05-20T12:35:42.866Z,20.71
2023-05-20T12:38:10.311Z,20.74
2023-05-20T12:40:38.110Z,20.80
2023-05-20T12:43:05.783Z,20.86
2023-05-20T12:45:32.560Z,20.50
2023-05-20T12:47:59.625Z,20.44
2023-05-20T12:50:27.458Z,20.30
2023-05-20T12:52:54.271Z,20.31
2023-05-20T12:55:21.518Z,20.37
2023-05-20T12:57:50.162Z,20.51
2023-05-20T13:00:17.468Z,20.53
2023-05-20T13:02:44.346Z,20.43
2023-05-20T13:05:11.728Z,20.32
2023-05-20T13:07:38.796Z,20.37
2023-05-20T13:10:07.147Z,20.36
2023-05-20T13:12:34.896Z,20.45
2023-05-20T13:15:01.699Z,20.42
2023-05-20T13:17:28.689Z,20.36
2023-05-20T13:19:55.787Z,20.45
2023-05-20T13:22:23.018Z,20.45
2023-05-20T13:24:49.819Z,20.66
2023-05-20T13:27:16.604Z,20.75
2023-05-20T13:29:43.952Z,20.65
2023-05-20T13:32:10.912Z,20.70
2023-05-20T13:34:39.158Z,20.74
2023-05-20T13:37:06.654Z,20.49
2023-05-20T13:39:33.537Z,20.46
2023-05-20T13:42:00.454Z,20.58
2023-05-20T13:44:27.372Z,20.70
2023-05-20T13:46:54.342Z,20.55
2023-05-20T13:49:21.685Z,20.50
2023-05-20T13:51:48.492Z,20.67
2023-05-20T13:54:15.420Z,20.72
2023-05-20T13:56:42.752Z,20.70
2023-05-20T13:59:09.589Z,20.74
2023-05-20T14:01:37.218Z,20.49
2023-05-20T14:04:07.194Z,20.66
2023-05-20T14:06:34.045Z,20.72
2023-05-20T14:09:01.009Z,20.62
2023-05-20T14:11:27.796Z,20.63
2023-05-20T14:13:54.694Z,20.63
2023-05-20T14:16:21.478Z,20.68
2023-05-20T14:18:48.678Z,20.64
2023-05-20T14:21:15.557Z,20.62
2023-05-20T14:23:44.659Z,20.50
2023-05-20T14:26:11.739Z,20.50
2023-05-20T14:28:38.703Z,20.58
2023-05-20T14:31:08.229Z,20.56
2023-05-20T14:33:36.435Z,20.51
2023-05-20T14:36:03.381Z,20.68
2023-05-20T14:38:30.319Z,20.56
2023-05-20T14:40:57.182Z,20.83
2023-05-20T14:43:24.072Z,20.75
2023-05-20T14:45:52.660Z,20.68
2023-05-20T14:48:22.420Z,20.69
2023-05-20T14:50:50.065Z,20.63
2023-05-20T14:53:17.304Z,20.61
2023-05-20T14:55:44.108Z,20.68
2023-05-20T14:58:11.010Z,20.72
2023-05-20T15:00:38.049Z,20.64
2023-05-20T15:03:08.195Z,20.63
2023-05-20T15:05:35.006Z,20.59
2023-05-20T15:08:01.783Z,20.44
2023-05-20T15:10:28.538Z,20.51
2023-05-20T15:12:55.452Z,20.50
2023-05-20T15:15:22.691Z,20.40
2023-05-20T15:17:49.706Z,20.52
2023-05-20T15:20:16.511Z,20.44
2023-05-20T15:22:45.944Z,20.53
2023-05-20T15:25:12.827Z,20.59
2023-05-20T15:27:41.708Z,20.51
2023-05-20T15:30:09.366Z,20.53
2023-05-20T15:32:36.428Z,20.43
2023-05-20T15:35:04.524Z,20.39
2023-05-20T15:37:31.405Z,20.33
2023-05-20T15:39:58.331Z,20.32
2023-05-20T15:42:25.181Z,20.29
2023-05-20T15:44:52.363Z,20.40
2023-05-20T15:47:19.324Z,20.37
2023-05-20T15:49:46.400Z,20.43
2023-05-20T15:52:14.281Z,20.41
2023-05-20T15:54:42.277Z,20.40
2023-05-20T15:57:09.203Z,20.37
2023-05-20T15:59:36.245Z,20.41
2023-05-20T16:02:03.193Z,20.16
2023-05-20T16:04:30.267Z,20.33
2023-05-20T16:06:57.265Z,20.32
2023-05-20T16:09:24.131Z,20.46
2023-05-20T16:11:50.987Z,20.47
2023-05-20T16:14:17.799Z,20.36
2023-05-20T16:16:44.742Z,20.29
2023-05-20T16:19:11.639Z,20.31
2023-05-20T16:21:38.535Z,20.35
2023-05-20T16:24:06.513Z,20.37
2023-05-20T16:26:33.487Z,20.30
2023-05-20T16:29:00.335Z,20.32
2023-05-20T16:31:27.788Z,20.29
2023-05-20T16:33:55.121Z,20.38
2023-05-20T16:36:22.293Z,20.29
2023-05-20T16:38:49.098Z,20.30
2023-05-20T16:41:16.379Z,20.30
2023-05-20T16:43:46.303Z,20.28
2023-05-20T16:46:14.864Z,20.29
2023-05-20T16:48:42.456Z,20.41
2023-05-20T16:51:09.272Z,20.36
2023-05-20T16:53:36.179Z,20.35
2023-05-20T16:56:03.385Z,20.26
2023-05-20T16:58:30.327Z,20.20
2023-05-20T17:00:57.160Z,20.14
2023-05-20T17:03:24.084Z,20.24
2023-05-20T17:05:50.948Z,20.24
2023-05-20T17:08:18.492Z,20.29
2023-05-20T17:10:45.670Z,20.30
2023-05-20T17:13:12.493Z,20.32
2023-05-20T17:15:39.321Z,20.26
2023-05-20T17:18:06.204Z,20.14
2023-05-20T17:20:33.346Z,20.09
2023-05-20T17:23:00.934Z,19.99
2023-05-20T17:25:28.243Z,20.06
2023-05-20T17:27:55.109Z,20.10
2023-05-20T17:30:22.048Z,20.04
2023-05-20T17:32:50.033Z,20.06
2023-05-20T17:35:20.524Z,19.92
2023-05-20T17:37:47.668Z,19.87
2023-05-20T17:40:14.748Z,19.92
2023-05-20T17:42:41.754Z,19.96
2023-05-20T17:45:09.110Z,19.77
2023-05-20T17:47:36.054Z,19.76
2023-05-20T17:50:02.985Z,19.79
2023-05-20T17:52:30.046Z,19.84
2023-05-20T17:54:56.851Z,19.85
2023-05-20T17:57:23.676Z,19.84
2023-05-20T17:59:51.062Z,19.80
2023-05-20T18:02:17.989Z,19.75
2023-05-20T18:04:44.884Z,19.76
2023-05-20T18:07:13.206Z,19.70
2023-05-20T18:09:40.171Z,19.71
2023-05-20T18:12:07.714Z,19.60
2023-05-20T18:14:34.483Z,19.67
2023-05-20T18:17:01.555Z,19.62
2023-05-20T18:19:28.422Z,19.73
2023-05-20T18:21:55.302Z,19.76
2023-05-20T18:24:22.208Z,19.62
2023-05-20T18:26:48.991Z,19.65
2023-05-20T18:29:15.879Z,19.59
2023-05-20T18:31:43.681Z,19.50
2023-05-20T18:34:10.997Z,19.50
2023-05-20T18:36:37.901Z,19.56
2023-05-20T18:39:05.137Z,19.47
2023-05-20T18:41:45.999Z,19.60
2023-05-20T18:44:17.912Z,19.53
2023-05-20T18:46:45.094Z,19.41
2023-05-20T18:49:11.936Z,19.52
2023-05-20T18:51:39.580Z,19.33
2023-05-20T18:54:07.506Z,19.35
2023-05-20T18:56:36.183Z,19.37
2023-05-20T18:59:03.145Z,19.35
2023-05-20T19:01:30.220Z,19.34
2023-05-20T19:03:57.228Z,19.37
2023-05-20T19:06:24.140Z,19.36
2023-05-20T19:08:51.059Z,19.42
2023-05-20T19:11:17.892Z,19.30
2023-05-20T19:13:44.735Z,19.18
2023-05-20T19:16:11.493Z,19.24
2023-05-20T19:18:38.774Z,19.30
2023-05-20T19:21:05.685Z,19.28
2023-05-20T19:23:32.750Z,19.22
2023-05-20T19:25:59.542Z,19.22
2023-05-20T19:28:26.425Z,19.14
2023-05-20T19:30:53.549Z,19.10
2023-05-20T19:33:20.889Z,19.10
2023-05-20T19:35:47.676Z,19.06
2023-05-20T19:38:14.626Z,19.13
2023-05-20T19:40:41.417Z,19.16
2023-05-20T19:43:08.281Z,19.14
2023-05-20T19:45:36.976Z,19.07
2023-05-20T19:48:04.662Z,19.01
2023-05-20T19:50:31.834Z,18.92
2023-05-20T19:52:58.775Z,18.98
2023-05-20T19:55:25.710Z,19.01
2023-05-20T19:57:55.396Z,18.95
2023-05-20T20:00:22.638Z,18.94
2023-05-20T20:02:50.128Z,18.95
2023-05-20T20:05:16.942Z,18.90
2023-05-20T20:07:43.801Z,19.03
2023-05-20T20:10:11.181Z,18.94
2023-05-20T20:12:37.988Z,18.92
2023-05-20T20:15:06.187Z,18.93
2023-05-20T20:17:34.026Z,18.95
2023-05-20T20:20:01.297Z,18.86
2023-05-20T20:22:28.245Z,18.88
2023-05-20T20:24:55.188Z,18.95
2023-05-20T20:27:24.027Z,18.85
2023-05-20T20:29:50.912Z,18.83
2023-05-20T20:32:20.803Z,18.71
2023-05-20T20:34:47.612Z,18.73
2023-05-20T20:37:15.381Z,18.76
2023-05-20T20:39:43.108Z,18.73
2023-05-20T20:42:09.876Z,18.73
2023-05-20T20:44:36.746Z,18.75
2023-05-20T20:47:04.609Z,18.82
2023-05-20T20:49:32.325Z,18.84
2023-05-20T20:51:59.335Z,18.80
2023-05-20T20:54:33.192Z,18.81
2023-05-20T20:57:02.937Z,18.79
2023-05-20T20:59:30.542Z,18.75
2023-05-20T21:01:57.993Z,18.71
2023-05-20T21:04:25.338Z,18.78
2023-05-20T21:06:52.506Z,18.66
2023-05-20T21:09:19.287Z,18.68
2023-05-20T21:11:46.164Z,18.71
2023-05-20T21:14:13.300Z,18.62
2023-05-20T21:16:40.552Z,18.49
2023-05-20T21:19:07.446Z,18.52
2023-05-20T21:21:34.309Z,18.46
2023-05-20T21:24:01.283Z,18.56
2023-05-20T21:26:28.046Z,18.53
2023-05-20T21:28:54.835Z,18.38
2023-05-20T21:31:21.809Z,18.25
2023-05-20T21:33:48.666Z,18.26
2023-05-20T21:36:15.504Z,18.29
2023-05-20T21:38:42.290Z,18.32
2023-05-20T21:41:09.526Z,18.23
2023-05-20T21:43:37.560Z,18.33
2023-05-20T21:46:06.357Z,18.34
2023-05-20T21:48:33.215Z,18.27
2023-05-20T21:51:00.045Z,18.23
2023-05-20T21:53:26.936Z,18.25
2023-05-20T21:55:53.766Z,18.19
2023-05-20T21:58:20.554Z,18.16
2023-05-20T22:00:47.569Z,18.05
2023-05-20T22:03:14.902Z,18.07
2023-05-20T22:05:46.161Z,18.00
2023-05-20T22:08:13.240Z,18.01
2023-05-20T22:10:40.308Z,18.16
2023-05-20T22:13:07.196Z,17.97
2023-05-20T22:15:34.621Z,17.81
2023-05-20T22:18:04.748Z,17.69
2023-05-20T22:20:34.058Z,17.72
2023-05-20T22:23:01.237Z,17.72
2023-05-20T22:25:28.233Z,17.70
2023-05-20T22:27:55.156Z,17.75
2023-05-20T22:30:22.056Z,17.76
2023-05-20T22:32:49.255Z,17.79
2023-05-20T22:35:16.521Z,17.72
2023-05-20T22:37:43.470Z,17.76
2023-05-20T22:40:10.899Z,17.59
2023-05-20T22:42:37.770Z,17.62
2023-05-20T22:45:05.100Z,17.59
2023-05-20T22:47:31.939Z,17.74
2023-05-20T22:50:02.752Z,17.65
2023-05-20T22:52:29.817Z,17.58
2023-05-20T22:54:56.847Z,17.63
2023-05-20T22:57:25.117Z,17.78
2023-05-20T22:59:52.534Z,17.70
2023-05-20T23:02:19.693Z,17.58
2023-05-20T23:04:46.585Z,17.49
2023-05-20T23:07:15.094Z,17.56
2023-05-20T23:09:42.176Z,17.57
2023-05-20T23:12:09.175Z,17.57
2023-05-20T23:14:36.205Z,17.61
2023-05-20T23:17:03.096Z,17.64
2023-05-20T23:19:30.110Z,17.69
2023-05-20T23:21:57.209Z,17.57
2023-05-20T23:24:24.027Z,17.63
2023-05-20T23:26:54.316Z,17.63
2023-05-20T23:29:21.797Z,17.55
2023-05-20T23:31:50.701Z,17.63
2023-05-20T23:34:17.985Z,17.56
2023-05-20T23:36:46.011Z,17.56
2023-05-20T23:39:12.788Z,17.47
2023-05-20T23:41:39.633Z,17.47
2023-05-20T23:44:06.731Z,17.47
2023-05-20T23:46:33.584Z,17.51
2023-05-20T23:49:02.153Z,17.46
2023-05-20T23:51:29.021Z,17.37
2023-05-20T23:53:56.283Z,17.45
2023-05-20T23:56:23.298Z,17.45
2023-05-20T23:58:50.093Z,17.42
